Aeroporto :







RITROVATECI SU...

 
LOGIN :

Iscrizione | Disclaimer

   EN    FR    IT 

 









Sommario :    VFR   VFR Marginale   IFR   IFR Intensivo   IFR Molto Intensivo
Visibilità : 
Base nubi : 
>= 8 km
>= 3000ft
5 / 8 km
1000 / 3000 ft
1500m / 5 km
500 / 1000 ft
800 / 1500m
200 / 500 ft
< 800m
< 200 ft
Simboli :   Temporali  Nebbia  Neve Forte  Precipitazioni Forti  Vento > 20 kt







- Altitudine del aeroporto : 172 ft
- Codice IATA : YYY


CYYY - Mont Joli

ULTIMO METAR :
  • 251200Z 22005KT 160V250 30SM SKC 16/07 A3040 RMK SLP296

METARs OBSOLETI :
  • 251100Z 17003KT 30SM SKC 13/07 A3039 RMK SLP292

TAF TAF CYYY
Valido dal 25 a 08 ore il 25 a 20 ore UTC


250738Z 2508/2520 17005KT P6SM SKC
PROB30 2508/2511 2SM BR
FM251600 24005KT P6SM SKC RMK NXT FCST BY 251400Z
Nessun NOTAM noto per questo aeroporto.



MetMap, La meteo Aeronautica in un colpo d'occhio ! - Copyright ORBIFLY Dicembre 2007 - Disclaimer

ORBIFLY MET'MAP TEAM :

Programmazione e sviluppo : Alexandra Zaïnal
Concezione e sviluppo : Baudouin d'Aumeries
Co-Programmazione e sviluppo : Marc-Olivier Méhu
Supporto tecnico e logistico : Manuel Goepfert
Aiuto per la traduzione : Arnaldo La Scala

Contatto : metmap@orbifly.com




FONTI E CREDITI :

   NOAA